createdAt,value
2018-07-19T00:00:52.721Z,21.20
2018-07-19T00:05:58.436Z,21.10
2018-07-19T00:11:02.011Z,21.10
2018-07-19T00:16:05.158Z,21.00
2018-07-19T00:21:08.990Z,20.90
2018-07-19T00:26:13.793Z,20.80
2018-07-19T00:31:17.545Z,20.80
2018-07-19T00:36:20.334Z,20.70
2018-07-19T00:41:24.235Z,20.60
2018-07-19T00:46:28.806Z,20.60
2018-07-19T00:51:33.183Z,20.50
2018-07-19T00:56:38.851Z,20.40
2018-07-19T01:01:41.837Z,20.30
2018-07-19T01:06:44.585Z,20.30
2018-07-19T01:11:48.913Z,20.20
2018-07-19T01:16:53.506Z,20.10
2018-07-19T01:21:58.075Z,20.10
2018-07-19T01:27:01.448Z,19.90
2018-07-19T01:32:06.271Z,19.90
2018-07-19T01:37:12.954Z,19.80
2018-07-19T01:42:25.547Z,19.80
2018-07-19T01:47:29.356Z,19.70
2018-07-19T01:52:33.975Z,19.60
2018-07-19T01:57:36.627Z,19.60
2018-07-19T02:02:40.771Z,19.50
2018-07-19T02:07:44.868Z,19.40
2018-07-19T02:12:49.926Z,19.30
2018-07-19T02:17:52.904Z,19.30
2018-07-19T02:22:56.622Z,19.20
2018-07-19T02:28:00.588Z,19.20
2018-07-19T02:33:06.048Z,19.10
2018-07-19T02:38:09.651Z,19.10
2018-07-19T02:43:16.845Z,19.00
2018-07-19T02:48:20.883Z,18.90
2018-07-19T02:53:24.758Z,18.80
2018-07-19T02:58:29.554Z,18.80
2018-07-19T03:03:32.549Z,18.70
2018-07-19T03:08:38.659Z,18.70
2018-07-19T03:13:42.334Z,18.60
2018-07-19T03:18:45.440Z,18.60
2018-07-19T03:23:51.292Z,18.50
2018-07-19T03:28:54.776Z,18.50
2018-07-19T03:33:58.467Z,18.40
2018-07-19T03:39:00.967Z,18.40
2018-07-19T03:44:03.445Z,18.30
2018-07-19T03:49:05.924Z,18.30
2018-07-19T03:54:08.405Z,18.20
2018-07-19T03:59:10.896Z,18.20
2018-07-19T04:04:13.383Z,18.20
2018-07-19T04:09:15.865Z,18.10
2018-07-19T04:14:18.349Z,18.10
2018-07-19T04:19:20.837Z,18.10
2018-07-19T04:24:23.335Z,18.10
2018-07-19T04:29:26.213Z,18.00
2018-07-19T04:34:29.812Z,18.00
2018-07-19T04:39:32.697Z,18.00
2018-07-19T04:44:38.679Z,18.00
2018-07-19T04:49:42.474Z,18.00
2018-07-19T04:54:45.363Z,18.00
2018-07-19T04:59:48.723Z,18.10
2018-07-19T05:04:54.173Z,18.20
2018-07-19T05:09:57.511Z,18.20
2018-07-19T05:15:03.270Z,18.30
2018-07-19T05:20:08.612Z,18.40
2018-07-19T05:25:12.419Z,18.50
2018-07-19T05:30:16.639Z,18.60
2018-07-19T05:35:19.675Z,18.80
2018-07-19T05:40:23.281Z,19.10
2018-07-19T05:45:26.752Z,19.10
2018-07-19T05:50:30.503Z,19.30
2018-07-19T05:55:35.241Z,19.50
2018-07-19T06:00:39.108Z,20.10
2018-07-19T06:05:42.764Z,20.40
2018-07-19T06:10:46.953Z,20.30
2018-07-19T06:15:52.374Z,20.70
2018-07-19T06:21:00.752Z,21.30
2018-07-19T06:26:06.877Z,21.30
2018-07-19T06:31:12.615Z,21.60
2018-07-19T06:36:16.516Z,21.90
2018-07-19T06:41:21.806Z,22.30
2018-07-19T06:46:26.021Z,22.60
2018-07-19T06:51:31.216Z,22.90
2018-07-19T06:56:35.959Z,23.30
2018-07-19T07:01:38.442Z,23.60
2018-07-19T07:06:40.926Z,24.00
2018-07-19T07:11:43.417Z,24.40
2018-07-19T07:16:46.548Z,24.70
2018-07-19T07:21:49.104Z,25.10
2018-07-19T07:26:51.596Z,25.40
2018-07-19T07:31:58.345Z,25.60
2018-07-19T07:37:02.282Z,26.00
2018-07-19T07:42:10.846Z,26.50
2018-07-19T07:47:16.638Z,26.40
2018-07-19T07:57:29.563Z,27.10
2018-07-19T08:02:36.590Z,27.30
2018-07-19T08:07:41.604Z,27.80
2018-07-19T08:12:46.115Z,28.10
2018-07-19T08:17:52.160Z,28.10
2018-07-19T08:22:56.312Z,28.40
2018-07-19T08:28:04.259Z,28.60
2018-07-19T08:33:07.975Z,28.70
2018-07-19T08:38:16.698Z,29.00
2018-07-19T08:43:23.117Z,29.40
2018-07-19T08:48:26.649Z,29.60
2018-07-19T08:53:31.758Z,29.80
2018-07-19T08:58:37.295Z,30.00
2018-07-19T09:03:41.062Z,30.20
2018-07-19T09:13:53.689Z,30.50
2018-07-19T09:18:59.390Z,30.70
2018-07-19T09:24:05.394Z,30.90
2018-07-19T09:29:11.173Z,31.10
2018-07-19T09:34:16.330Z,31.30
2018-07-19T09:39:19.724Z,31.40
2018-07-19T09:44:31.618Z,31.60
2018-07-19T09:49:37.635Z,31.70
2018-07-19T09:54:47.571Z,31.90
2018-07-19T09:59:51.903Z,32.10
2018-07-19T10:04:55.210Z,32.30
2018-07-19T10:10:00.893Z,32.40
2018-07-19T10:15:04.713Z,32.50
2018-07-19T10:20:14.244Z,32.60
2018-07-19T10:25:20.073Z,32.70
2018-07-19T10:30:25.515Z,32.70
2018-07-19T10:35:29.735Z,32.70
2018-07-19T10:40:34.181Z,32.80
2018-07-19T10:45:37.390Z,32.90
2018-07-19T10:50:40.874Z,33.00
2018-07-19T10:55:44.555Z,33.10
2018-07-19T11:00:49.848Z,33.20
2018-07-19T11:05:54.765Z,33.20
2018-07-19T11:10:58.493Z,33.30
2018-07-19T11:16:08.528Z,33.40
2018-07-19T11:21:12.199Z,33.40
2018-07-19T11:26:18.375Z,33.60
2018-07-19T11:31:21.915Z,33.70
2018-07-19T11:36:26.799Z,33.70
2018-07-19T11:41:29.862Z,33.80
2018-07-19T11:46:37.515Z,33.80
2018-07-19T11:51:42.176Z,33.90
2018-07-19T11:56:48.048Z,34.00
2018-07-19T12:01:51.881Z,34.00
2018-07-19T12:06:57.173Z,34.10
2018-07-19T12:12:01.120Z,34.20
2018-07-19T12:17:05.593Z,34.20
2018-07-19T12:22:12.405Z,34.20
2018-07-19T12:27:16.752Z,34.20
2018-07-19T12:32:23.299Z,34.30
2018-07-19T12:37:27.837Z,34.40
2018-07-19T12:42:35.803Z,34.50
2018-07-19T12:47:39.771Z,34.50
2018-07-19T12:52:44.590Z,34.50
2018-07-19T12:57:50.153Z,34.60
2018-07-19T13:02:53.228Z,34.50
2018-07-19T13:07:58.068Z,34.60
2018-07-19T13:13:02.328Z,34.70
2018-07-19T13:18:06.144Z,34.60
2018-07-19T13:23:14.410Z,34.70
2018-07-19T13:28:18.877Z,34.80
2018-07-19T13:33:22.256Z,34.80
2018-07-19T13:38:27.019Z,34.80
2018-07-19T13:43:33.605Z,34.80
2018-07-19T13:48:38.928Z,34.70
2018-07-19T13:53:55.722Z,34.70
2018-07-19T13:58:59.278Z,34.70
2018-07-19T14:04:07.831Z,34.60
2018-07-19T14:09:14.974Z,34.50
2018-07-19T14:14:21.399Z,34.50
2018-07-19T14:19:27.673Z,34.40
2018-07-19T14:24:32.732Z,34.20
2018-07-19T14:29:41.203Z,34.20
2018-07-19T14:34:47.013Z,34.10
2018-07-19T14:39:51.162Z,34.10
2018-07-19T14:44:55.345Z,34.00
2018-07-19T14:49:59.400Z,34.00
2018-07-19T14:55:06.931Z,33.90
2018-07-19T15:00:12.068Z,33.90
2018-07-19T15:05:19.075Z,33.80
2018-07-19T15:10:23.230Z,33.70
2018-07-19T15:15:28.029Z,33.60
2018-07-19T15:20:34.629Z,33.40
2018-07-19T15:25:41.242Z,33.40
2018-07-19T15:30:46.083Z,33.20
2018-07-19T15:35:52.629Z,33.20
2018-07-19T15:46:09.903Z,33.10
2018-07-19T15:51:16.808Z,33.00
2018-07-19T15:56:22.739Z,33.00
2018-07-19T16:01:26.325Z,32.80
2018-07-19T16:06:33.700Z,32.80
2018-07-19T16:11:41.579Z,32.80
2018-07-19T16:16:47.346Z,32.60
2018-07-19T16:21:53.902Z,32.60
2018-07-19T16:26:59.072Z,32.40
2018-07-19T16:32:05.198Z,32.40
2018-07-19T16:37:10.614Z,32.30
2018-07-19T16:42:20.316Z,32.20
2018-07-19T16:47:24.381Z,32.10
2018-07-19T16:52:28.911Z,32.00
2018-07-19T16:57:33.245Z,31.90
2018-07-19T17:02:37.484Z,31.70
2018-07-19T17:07:43.058Z,31.60
2018-07-19T17:12:47.531Z,31.50
2018-07-19T17:17:56.308Z,31.40
2018-07-19T17:23:00.999Z,31.30
2018-07-19T17:28:09.433Z,31.00
2018-07-19T17:33:13.803Z,30.90
2018-07-19T17:38:19.866Z,30.80
2018-07-19T17:43:23.571Z,30.70
2018-07-19T17:48:27.699Z,30.50
2018-07-19T17:53:34.794Z,30.20
2018-07-19T17:58:37.294Z,30.20
2018-07-19T18:03:39.795Z,30.00
2018-07-19T18:08:43.049Z,29.70
2018-07-19T18:13:45.559Z,29.70
2018-07-19T18:29:09.425Z,29.30
2018-07-19T18:34:23.398Z,29.10
2018-07-19T18:39:34.944Z,29.00
2018-07-19T18:44:37.605Z,28.80
2018-07-19T18:49:40.110Z,28.70
2018-07-19T18:54:42.630Z,28.50
2018-07-19T18:59:45.114Z,28.40
2018-07-19T19:04:47.619Z,28.20
2018-07-19T19:09:50.118Z,28.10
2018-07-19T19:14:52.614Z,27.90
2018-07-19T19:19:55.883Z,27.60
2018-07-19T19:24:58.365Z,27.60
2018-07-19T19:30:00.891Z,27.50
2018-07-19T19:35:03.393Z,27.30
2018-07-19T19:40:11.492Z,27.20
2018-07-19T19:45:14.053Z,27.10
2018-07-19T19:50:18.724Z,26.90
2018-07-19T19:55:24.256Z,26.70
2018-07-19T20:00:35.513Z,26.60
2018-07-19T20:05:38.080Z,26.40
2018-07-19T20:10:43.165Z,26.20
2018-07-19T20:15:49.340Z,26.10
2018-07-19T20:20:54.825Z,25.90
2018-07-19T20:26:05.281Z,25.80
2018-07-19T20:31:11.208Z,25.60
2018-07-19T20:36:17.284Z,25.50
2018-07-19T20:41:21.975Z,25.30
2018-07-19T20:46:31.978Z,25.20
2018-07-19T20:51:37.769Z,25.00
2018-07-19T20:56:41.042Z,24.90
2018-07-19T21:01:44.298Z,24.70
2018-07-19T21:06:49.351Z,24.60
2018-07-19T21:12:01.152Z,24.40
2018-07-19T21:17:05.600Z,24.30
2018-07-19T21:22:11.149Z,24.10
2018-07-19T21:27:16.212Z,24.00
2018-07-19T21:32:20.749Z,23.90
2018-07-19T21:37:26.078Z,23.70
2018-07-19T21:42:29.849Z,23.60
2018-07-19T21:47:34.684Z,23.50
2018-07-19T21:52:39.183Z,23.40
2018-07-19T21:57:42.817Z,23.30
2018-07-19T22:02:46.069Z,23.10
2018-07-19T22:12:54.785Z,23.00
2018-07-19T22:17:57.262Z,22.90
2018-07-19T22:23:00.552Z,22.70
2018-07-19T22:28:03.068Z,22.70
2018-07-19T22:33:05.541Z,22.60
2018-07-19T22:38:08.050Z,22.50
2018-07-19T22:43:10.540Z,22.40
2018-07-19T22:48:13.046Z,22.30
2018-07-19T22:53:15.531Z,22.20
2018-07-19T22:58:18.008Z,22.10
2018-07-19T23:03:20.521Z,22.00
2018-07-19T23:08:23.011Z,22.00
2018-07-19T23:13:25.501Z,21.90
2018-07-19T23:18:27.976Z,21.70
2018-07-19T23:23:30.464Z,21.70
2018-07-19T23:28:32.950Z,21.60
2018-07-19T23:33:35.457Z,21.50
2018-07-19T23:38:37.942Z,21.40
2018-07-19T23:43:40.424Z,21.30
2018-07-19T23:48:42.930Z,21.20
2018-07-19T23:53:45.444Z,21.10
2018-07-19T23:58:48.692Z,21.00
